Time;durP1;ratioP1;P1;durP2;ratioP2;P2;SDS_P1;SDS_P2;PMS_P1;PMS_P2;Temp;Humidity;BMP_temperature;BMP_pressure;BME280_temperature;BME280_humidity;BME280_pressure;Samples;Min_cycle;Max_cycle;Signal;HPM_P1;HPM_P2
2021/01/20 00:02:04;;;;;;;3.93;1.23;;;7.50;98.40;;;;;;4957922;29;20023;-74
2021/01/20 00:04:30;;;;;;;7.90;3.87;;;7.40;98.40;;;;;;4958308;29;20041;-74
2021/01/20 00:06:56;;;;;;;18.30;7.17;;;7.50;98.30;;;;;;4958165;29;20066;-74
2021/01/20 00:09:22;;;;;;;17.83;10.03;;;7.50;98.20;;;;;;4958137;29;20043;-74
2021/01/20 00:11:47;;;;;;;22.03;12.97;;;7.60;98.10;;;;;;4958136;29;20442;-73
2021/01/20 00:14:18;;;;;;;31.37;17.73;;;7.60;98.00;;;;;;4958030;29;20034;-75
2021/01/20 00:16:44;;;;;;;37.10;18.17;;;7.60;97.40;;;;;;4957975;29;20082;-73
2021/01/20 00:19:10;;;;;;;28.80;16.50;;;7.50;96.50;;;;;;4957816;29;20035;-74
2021/01/20 00:21:36;;;;;;;28.93;16.50;;;7.50;96.40;;;;;;4957650;29;20764;-75
2021/01/20 00:24:02;;;;;;;26.53;17.17;;;7.50;96.70;;;;;;4957597;29;20035;-75
2021/01/20 00:26:28;;;;;;;29.80;16.63;;;7.50;96.30;;;;;;4925113;29;20122;-76
2021/01/20 00:28:55;;;;;;;29.30;16.73;;;7.50;96.30;;;;;;4957920;29;20491;-74
2021/01/20 00:31:20;;;;;;;28.53;16.07;;;7.40;95.90;;;;;;4940555;29;20027;-74
2021/01/20 00:33:46;;;;;;;24.63;15.33;;;7.30;96.10;;;;;;4940008;29;20063;-76
2021/01/20 00:36:12;;;;;;;29.10;16.17;;;7.30;96.00;;;;;;4940371;29;20035;-74
2021/01/20 00:38:37;;;;;;;27.50;16.20;;;7.20;95.60;;;;;;4957330;29;20110;-73
2021/01/20 00:41:03;;;;;;;24.80;14.97;;;7.30;95.60;;;;;;4957450;29;20038;-75
2021/01/20 00:43:29;;;;;;;27.47;14.23;;;7.10;95.70;;;;;;4956813;28;20570;-76
2021/01/20 00:45:55;;;;;;;26.70;14.87;;;7.10;95.20;;;;;;4957087;29;20023;-74
2021/01/20 00:48:21;;;;;;;24.90;13.80;;;7.10;95.40;;;;;;4940552;29;20031;-74
2021/01/20 00:50:46;;;;;;;22.27;14.10;;;7.20;95.40;;;;;;4940908;29;20031;-74
2021/01/20 00:53:12;;;;;;;29.10;14.53;;;7.20;95.30;;;;;;4940707;29;20054;-74
2021/01/20 00:55:38;;;;;;;25.37;13.73;;;7.20;95.30;;;;;;4957158;29;20039;-74
2021/01/20 00:58:03;;;;;;;23.93;13.03;;;7.10;94.90;;;;;;4940252;29;20082;-75
2021/01/20 01:00:29;;;;;;;21.10;12.73;;;7.10;95.00;;;;;;4957058;29;20054;-74
2021/01/20 01:02:55;;;;;;;25.57;11.80;;;7.10;94.60;;;;;;4957234;29;20360;-75
2021/01/20 01:05:20;;;;;;;20.93;11.27;;;7.10;94.40;;;;;;4957005;29;20603;-73
2021/01/20 01:07:46;;;;;;;24.07;12.07;;;7.10;94.40;;;;;;4939786;29;20030;-75
2021/01/20 01:10:12;;;;;;;20.67;12.23;;;7.10;94.30;;;;;;4923828;29;20090;-74
2021/01/20 01:12:38;;;;;;;18.13;11.20;;;7.10;94.30;;;;;;4956920;29;20400;-73
2021/01/20 01:15:05;;;;;;;19.53;10.73;;;7.10;94.00;;;;;;4939528;29;20126;-74
2021/01/20 01:17:31;;;;;;;18.17;10.20;;;7.20;94.10;;;;;;4956521;29;20059;-74
2021/01/20 01:19:56;;;;;;;18.23;9.67;;;7.20;94.10;;;;;;4956541;29;20028;-74
2021/01/20 01:22:22;;;;;;;14.73;9.37;;;7.10;93.50;;;;;;4939179;29;20035;-75
2021/01/20 01:24:48;;;;;;;18.13;8.57;;;7.20;93.50;;;;;;4956520;29;20055;-75
2021/01/20 01:27:13;;;;;;;16.17;9.40;;;7.20;93.00;;;;;;4956329;29;20027;-75
2021/01/20 01:29:39;;;;;;;18.60;9.27;;;7.20;93.40;;;;;;4956280;29;20024;-74
2021/01/20 01:32:06;;;;;;;16.17;8.87;;;7.10;93.10;;;;;;4956217;29;20028;-75
2021/01/20 01:34:32;;;;;;;15.07;7.13;;;7.20;92.70;;;;;;4956406;29;20023;-73
2021/01/20 01:36:58;;;;;;;18.53;7.43;;;7.30;92.80;;;;;;4956182;29;20623;-75
2021/01/20 01:39:24;;;;;;;16.50;8.37;;;7.40;92.80;;;;;;4956639;29;20038;-74
2021/01/20 01:41:49;;;;;;;18.97;7.20;;;7.30;92.80;;;;;;4956144;29;20114;-73
2021/01/20 01:44:17;;;;;;;16.30;8.37;;;7.30;92.70;;;;;;4938701;29;20047;-73
2021/01/20 01:46:43;;;;;;;16.53;7.40;;;7.30;93.00;;;;;;4955982;29;20078;-74
2021/01/20 01:49:09;;;;;;;14.13;7.43;;;7.30;92.80;;;;;;4956036;29;20023;-74
2021/01/20 01:51:35;;;;;;;16.33;8.10;;;7.20;92.50;;;;;;4956027;29;20110;-74
2021/01/20 01:54:01;;;;;;;15.80;7.60;;;7.30;92.60;;;;;;4955908;28;20038;-74
2021/01/20 01:56:26;;;;;;;15.70;7.57;;;7.30;92.70;;;;;;4955453;29;20412;-73
2021/01/20 01:58:53;;;;;;;12.17;7.27;;;7.40;92.70;;;;;;4955873;29;20027;-75
2021/01/20 02:01:19;;;;;;;16.23;7.70;;;7.30;92.50;;;;;;4955653;29;20098;-75
2021/01/20 02:03:48;;;;;;;16.90;7.60;;;7.30;92.60;;;;;;4955708;29;20020;-75
2021/01/20 02:06:14;;;;;;;14.20;7.63;;;7.50;92.80;;;;;;4956126;29;20043;-74
2021/01/20 02:08:40;;;;;;;14.03;7.90;;;7.30;92.40;;;;;;4956024;29;20035;-73
2021/01/20 02:11:21;;;;;;;19.83;7.97;;;7.30;92.70;;;;;;4955404;29;20023;-75
2021/01/20 02:14:17;;;;;;;16.43;7.47;;;7.30;92.60;;;;;;4955718;29;20031;-80
2021/01/20 02:17:00;;;;;;;16.40;6.97;;;7.30;92.70;;;;;;4955648;29;20019;-80
2021/01/20 02:19:45;;;;;;;15.23;7.83;;;7.30;92.70;;;;;;4938271;29;20019;-80
2021/01/20 02:22:21;;;;;;;15.87;7.57;;;7.30;92.80;;;;;;4955569;29;20027;-80
2021/01/20 02:25:04;;;;;;;15.03;8.37;;;7.20;93.00;;;;;;4955316;29;20027;-80
2021/01/20 02:27:44;;;;;;;15.70;7.87;;;7.30;92.80;;;;;;4955559;29;20110;-80
2021/01/20 02:30:10;;;;;;;13.57;6.97;;;7.20;92.80;;;;;;4955682;29;20026;-80
2021/01/20 02:32:38;;;;;;;16.57;7.90;;;7.30;93.30;;;;;;4955238;29;20026;-82
2021/01/20 02:35:05;;;;;;;15.53;8.03;;;7.30;93.10;;;;;;4922647;29;20031;-83
2021/01/20 02:37:33;;;;;;;14.77;7.80;;;7.30;92.80;;;;;;4938243;29;20090;-82
2021/01/20 02:39:59;;;;;;;15.63;8.00;;;7.30;92.80;;;;;;4955277;29;20035;-79
2021/01/20 02:42:25;;;;;;;14.67;7.80;;;7.30;92.90;;;;;;4906547;29;20391;-81
2021/01/20 02:44:51;;;;;;;16.87;8.73;;;7.30;92.90;;;;;;4937766;29;20051;-83
2021/01/20 02:47:17;;;;;;;18.87;7.93;;;7.30;93.00;;;;;;4955263;29;20027;-84
2021/01/20 02:49:43;;;;;;;15.57;8.10;;;7.30;93.00;;;;;;4938223;29;20035;-80
2021/01/20 02:52:40;;;;;;;13.30;7.27;;;7.30;92.90;;;;;;4955049;29;20039;-81
2021/01/20 02:55:09;;;;;;;12.77;7.53;;;7.30;93.10;;;;;;4937859;29;20105;-81
2021/01/20 02:57:37;;;;;;;15.70;7.67;;;7.30;93.00;;;;;;4955119;29;20027;-82
2021/01/20 03:00:04;;;;;;;15.67;7.20;;;7.40;93.00;;;;;;4955211;29;20031;-80
2021/01/20 03:02:31;;;;;;;15.13;6.63;;;7.40;92.90;;;;;;4922114;29;20100;-80
2021/01/20 03:04:59;;;;;;;16.67;7.90;;;7.40;93.00;;;;;;4926913;29;20074;-83
2021/01/20 03:07:27;;;;;;;16.57;8.17;;;7.40;92.70;;;;;;4939081;29;20034;-80
2021/01/20 03:09:54;;;;;;;18.93;7.37;;;7.40;92.80;;;;;;4939455;29;20020;-74
2021/01/20 03:12:29;;;;;;;15.37;7.27;;;7.50;92.90;;;;;;4939413;29;20467;-75
2021/01/20 03:14:58;;;;;;;15.60;7.57;;;7.40;92.90;;;;;;4939310;29;20023;-73
2021/01/20 03:17:26;;;;;;;13.17;6.93;;;7.50;93.00;;;;;;4939636;29;20019;-73
2021/01/20 03:19:51;;;;;;;14.13;7.47;;;7.40;93.00;;;;;;4922970;29;20476;-74
2021/01/20 03:22:17;;;;;;;15.53;7.63;;;7.40;93.00;;;;;;4939736;29;20035;-75
2021/01/20 03:24:43;;;;;;;15.00;7.43;;;7.50;93.20;;;;;;4922543;29;20432;-73
2021/01/20 03:27:08;;;;;;;13.33;7.37;;;7.50;93.20;;;;;;4939566;29;20185;-75
2021/01/20 03:29:34;;;;;;;15.23;6.90;;;7.40;93.20;;;;;;4939894;29;20039;-74
2021/01/20 03:32:00;;;;;;;13.17;6.70;;;7.50;93.10;;;;;;4922520;29;20110;-81
2021/01/20 03:34:25;;;;;;;13.00;6.50;;;7.60;93.10;;;;;;4922407;29;20040;-81
2021/01/20 03:36:51;;;;;;;14.43;6.53;;;7.50;93.10;;;;;;4939552;29;20035;-80
2021/01/20 03:39:16;;;;;;;13.83;7.03;;;7.50;93.10;;;;;;4939316;29;20070;-80
2021/01/20 03:41:42;;;;;;;13.87;6.87;;;7.50;93.00;;;;;;4939236;29;20040;-80
2021/01/20 03:44:07;;;;;;;14.77;6.47;;;7.50;93.00;;;;;;4906227;29;20044;-81
2021/01/20 03:46:33;;;;;;;13.93;7.30;;;7.50;92.70;;;;;;4939220;29;20416;-81
2021/01/20 03:48:58;;;;;;;10.23;6.23;;;7.60;92.70;;;;;;4939207;29;20036;-80
2021/01/20 03:51:28;;;;;;;12.20;5.83;;;7.60;92.90;;;;;;4921992;29;20555;-80
2021/01/20 03:53:53;;;;;;;14.30;6.00;;;7.60;92.60;;;;;;4922570;29;20487;-80
2021/01/20 03:56:19;;;;;;;16.03;6.67;;;7.60;92.60;;;;;;4939110;29;20083;-81
2021/01/20 03:58:44;;;;;;;12.90;5.43;;;7.60;92.60;;;;;;4921893;29;20036;-79
2021/01/20 04:01:10;;;;;;;13.33;5.57;;;7.60;92.10;;;;;;4921820;29;20083;-81
2021/01/20 04:03:35;;;;;;;10.50;5.87;;;7.60;92.10;;;;;;4938805;29;20333;-80
2021/01/20 04:06:01;;;;;;;12.47;5.13;;;7.60;92.20;;;;;;4921844;29;20075;-80
2021/01/20 04:08:27;;;;;;;11.17;5.20;;;7.70;91.90;;;;;;4938834;29;20032;-80
2021/01/20 04:10:52;;;;;;;13.53;5.93;;;7.70;92.00;;;;;;4921731;29;20035;-80
2021/01/20 04:13:18;;;;;;;10.83;4.53;;;7.70;91.70;;;;;;4938613;29;20103;-80
2021/01/20 04:15:43;;;;;;;11.53;5.20;;;7.70;91.40;;;;;;4921470;29;20027;-80
2021/01/20 04:18:09;;;;;;;10.50;4.97;;;7.70;91.60;;;;;;4920801;29;20028;-82
2021/01/20 04:20:34;;;;;;;10.77;5.00;;;7.80;91.20;;;;;;4921537;29;20399;-81
2021/01/20 04:23:00;;;;;;;10.17;4.57;;;7.80;91.20;;;;;;4921432;29;20149;-83
2021/01/20 04:25:26;;;;;;;10.80;4.40;;;7.80;91.00;;;;;;4921354;29;20035;-80
2021/01/20 04:27:51;;;;;;;13.37;5.03;;;7.90;91.10;;;;;;4905639;29;20522;-80
2021/01/20 04:30:17;;;;;;;10.60;4.63;;;7.90;90.80;;;;;;4938446;29;20024;-82
2021/01/20 04:32:43;;;;;;;8.13;4.20;;;7.90;90.80;;;;;;4921262;29;20107;-80
2021/01/20 04:35:09;;;;;;;9.43;4.47;;;7.90;90.90;;;;;;4938117;29;20526;-80
2021/01/20 04:37:34;;;;;;;10.27;3.90;;;7.90;90.60;;;;;;4938385;29;20035;-82
2021/01/20 04:40:00;;;;;;;9.40;4.20;;;7.90;90.60;;;;;;4921177;29;20098;-80
2021/01/20 04:42:25;;;;;;;10.93;4.17;;;8.00;90.70;;;;;;4938121;29;20060;-80
2021/01/20 04:44:52;;;;;;;10.97;4.20;;;8.00;90.50;;;;;;4937870;29;20048;-74
2021/01/20 04:47:20;;;;;;;11.10;4.93;;;7.90;90.40;;;;;;4938069;29;20016;-73
2021/01/20 04:49:51;;;;;;;10.83;4.40;;;8.10;90.60;;;;;;4920853;29;20031;-73
2021/01/20 04:52:18;;;;;;;11.13;4.93;;;8.10;90.50;;;;;;4938173;29;20026;-74
2021/01/20 04:54:46;;;;;;;9.33;4.20;;;8.00;90.40;;;;;;4937825;29;20455;-75
2021/01/20 04:57:13;;;;;;;11.43;5.07;;;8.10;90.40;;;;;;4937782;29;20034;-74
2021/01/20 04:59:41;;;;;;;9.27;4.60;;;8.10;90.40;;;;;;4937747;29;20036;-73
2021/01/20 05:02:10;;;;;;;10.07;4.80;;;8.10;90.50;;;;;;4936434;29;20027;-76
2021/01/20 05:04:39;;;;;;;13.40;4.40;;;8.20;90.50;;;;;;4937358;29;20055;-75
2021/01/20 05:07:06;;;;;;;10.40;4.60;;;8.20;90.30;;;;;;4936499;29;20035;-75
2021/01/20 05:09:32;;;;;;;10.20;4.43;;;8.20;90.60;;;;;;4937467;29;20330;-76
2021/01/20 05:11:57;;;;;;;9.27;3.63;;;8.20;90.00;;;;;;4920085;29;20060;-75
2021/01/20 05:14:23;;;;;;;9.60;4.50;;;8.20;90.20;;;;;;4937519;29;20032;-74
2021/01/20 05:16:50;;;;;;;8.50;3.90;;;8.20;90.00;;;;;;4937436;29;20889;-74
2021/01/20 05:19:32;;;;;;;8.27;4.37;;;8.10;89.90;;;;;;4920573;29;20028;-75
2021/01/20 05:22:11;;;;;;;8.93;4.13;;;8.20;89.40;;;;;;4937352;29;20027;-74
2021/01/20 05:24:38;;;;;;;9.27;4.13;;;8.20;89.80;;;;;;4937442;29;20110;-74
2021/01/20 05:27:04;;;;;;;9.17;4.40;;;8.30;90.00;;;;;;4920428;29;20083;-74
2021/01/20 05:29:30;;;;;;;10.17;4.70;;;8.20;89.80;;;;;;4937246;29;20094;-73
2021/01/20 05:31:56;;;;;;;9.23;4.53;;;8.30;89.60;;;;;;4937482;29;20419;-74
2021/01/20 05:34:32;;;;;;;9.77;3.90;;;8.20;89.20;;;;;;4937219;29;20111;-75
2021/01/20 05:37:10;;;;;;;10.63;4.37;;;8.30;89.20;;;;;;4937174;29;20042;-73
2021/01/20 05:39:37;;;;;;;8.43;3.60;;;8.20;89.10;;;;;;4937185;29;20123;-80
2021/01/20 05:42:07;;;;;;;9.40;4.00;;;8.30;89.10;;;;;;4937114;29;20043;-80
2021/01/20 05:44:33;;;;;;;12.67;4.40;;;8.30;88.90;;;;;;4919716;29;20043;-80
2021/01/20 05:47:09;;;;;;;9.50;3.63;;;8.30;89.50;;;;;;4936967;29;20058;-82
2021/01/20 05:49:35;;;;;;;6.13;3.40;;;8.40;88.40;;;;;;4919931;29;20023;-81
2021/01/20 05:52:01;;;;;;;8.20;3.97;;;8.20;87.80;;;;;;4936855;29;20020;-81
2021/01/20 05:54:29;;;;;;;10.33;3.53;;;8.30;87.60;;;;;;4920042;29;20039;-80
2021/01/20 05:57:17;;;;;;;10.50;3.87;;;8.30;87.60;;;;;;4937220;29;20059;-80
2021/01/20 05:59:43;;;;;;;9.80;3.90;;;8.30;87.60;;;;;;4919622;29;20028;-79
2021/01/20 06:02:10;;;;;;;10.13;4.03;;;8.30;87.50;;;;;;4919572;29;20042;-81
2021/01/20 06:04:38;;;;;;;7.53;2.97;;;8.40;87.50;;;;;;4922742;29;20383;-75
2021/01/20 06:07:09;;;;;;;8.43;3.40;;;8.30;87.30;;;;;;4938203;29;20038;-74
2021/01/20 06:09:37;;;;;;;8.67;3.53;;;8.30;87.30;;;;;;4955285;29;20096;-74
2021/01/20 06:12:04;;;;;;;9.40;3.60;;;8.30;86.90;;;;;;4955614;29;20514;-75
2021/01/20 06:14:30;;;;;;;9.23;3.87;;;8.30;86.70;;;;;;4955799;29;20118;-75
2021/01/20 06:17:07;;;;;;;8.57;3.60;;;8.30;86.80;;;;;;4955353;29;20527;-74
2021/01/20 06:19:38;;;;;;;7.30;3.13;;;8.40;87.00;;;;;;4955821;29;20448;-75
2021/01/20 06:22:04;;;;;;;7.93;3.83;;;8.40;86.50;;;;;;4955920;29;20023;-74
2021/01/20 06:24:37;;;;;;;8.13;3.00;;;8.40;86.30;;;;;;4955473;29;20031;-75
2021/01/20 06:27:09;;;;;;;7.63;2.83;;;8.40;86.10;;;;;;4955822;29;20074;-75
2021/01/20 06:29:40;;;;;;;6.53;3.23;;;8.40;85.70;;;;;;4938234;29;20028;-74
2021/01/20 06:32:07;;;;;;;8.67;3.23;;;8.40;86.10;;;;;;4955679;29;20349;-75
2021/01/20 06:34:33;;;;;;;6.43;2.90;;;8.40;86.30;;;;;;4955303;29;20078;-72
2021/01/20 06:36:58;;;;;;;7.17;3.27;;;8.40;85.60;;;;;;4955429;29;20035;-74
2021/01/20 06:39:30;;;;;;;6.20;2.80;;;8.40;85.70;;;;;;4938513;29;20034;-73
2021/01/20 06:41:56;;;;;;;7.43;2.73;;;8.50;86.00;;;;;;4937938;29;20399;-74
2021/01/20 06:44:22;;;;;;;9.93;2.93;;;8.40;85.70;;;;;;4955009;29;20047;-74
2021/01/20 06:46:56;;;;;;;6.83;3.00;;;8.50;85.70;;;;;;4955367;29;20111;-72
2021/01/20 06:49:26;;;;;;;7.40;2.83;;;8.50;85.30;;;;;;4937942;29;20031;-75
2021/01/20 06:52:18;;;;;;;6.73;2.17;;;8.50;85.10;;;;;;4938477;29;20023;-73
2021/01/20 06:54:46;;;;;;;7.77;2.70;;;8.50;85.40;;;;;;4950360;29;20043;-75
2021/01/20 06:57:41;;;;;;;5.77;2.70;;;8.50;85.10;;;;;;4955035;29;20027;-73
2021/01/20 07:00:17;;;;;;;7.03;3.07;;;8.50;85.10;;;;;;4943880;29;20048;-72
2021/01/20 07:03:03;;;;;;;4.90;2.07;;;8.50;85.30;;;;;;4940705;29;20369;-72
2021/01/20 07:05:35;;;;;;;7.00;2.00;;;8.60;85.20;;;;;;4935043;29;20057;-73
2021/01/20 07:08:01;;;;;;;7.20;2.60;;;8.60;85.00;;;;;;4935680;29;20028;-72
2021/01/20 07:10:29;;;;;;;7.30;2.20;;;8.60;84.90;;;;;;4935595;29;20034;-76
2021/01/20 07:13:10;;;;;;;5.27;1.80;;;8.60;84.70;;;;;;4918610;29;20023;-72
2021/01/20 07:15:43;;;;;;;3.83;1.63;;;8.60;85.00;;;;;;4935535;29;20571;-74
2021/01/20 07:18:08;;;;;;;6.60;2.07;;;8.60;85.30;;;;;;4935539;29;20063;-75
2021/01/20 07:20:34;;;;;;;5.50;2.37;;;8.60;85.10;;;;;;4935498;29;20039;-74
2021/01/20 07:23:01;;;;;;;7.70;2.20;;;8.60;85.40;;;;;;4935361;29;20055;-72
2021/01/20 07:25:27;;;;;;;4.40;1.90;;;8.60;85.50;;;;;;4935520;29;20072;-73
2021/01/20 07:27:53;;;;;;;5.90;2.03;;;8.60;85.50;;;;;;4935369;29;20055;-74
2021/01/20 07:30:19;;;;;;;5.90;2.00;;;8.70;85.70;;;;;;4935483;29;20023;-73
2021/01/20 07:32:45;;;;;;;4.63;2.10;;;8.60;85.70;;;;;;4935072;29;20036;-74
2021/01/20 07:35:25;;;;;;;7.27;2.37;;;8.70;85.80;;;;;;4935259;29;20032;-75
2021/01/20 07:38:05;;;;;;;8.13;2.07;;;8.60;85.90;;;;;;4935389;29;20027;-74
2021/01/20 07:40:36;;;;;;;4.80;1.90;;;8.60;86.30;;;;;;4935368;29;20068;-81
2021/01/20 07:43:02;;;;;;;7.27;1.80;;;8.70;86.30;;;;;;4934183;29;20097;-81
2021/01/20 07:45:32;;;;;;;5.37;2.27;;;8.70;86.40;;;;;;4918583;29;20488;-83
2021/01/20 07:47:57;;;;;;;5.10;2.20;;;8.60;86.50;;;;;;4918723;29;20032;-74
2021/01/20 07:50:58;;;;;;;5.77;2.30;;;8.70;86.90;;;;;;4925974;29;20502;-75
2021/01/20 07:53:24;;;;;;;5.80;1.97;;;8.50;86.80;;;;;;4859087;29;20037;-74
2021/01/20 07:55:54;;;;;;;4.93;1.97;;;8.60;86.90;;;;;;4915000;29;20040;-74
2021/01/20 07:58:28;;;;;;;5.07;1.90;;;8.70;87.30;;;;;;4946840;29;20031;-75
2021/01/20 08:00:55;;;;;;;5.37;2.00;;;8.70;87.50;;;;;;4947013;29;20036;-73
2021/01/20 08:03:34;;;;;;;5.97;2.23;;;8.70;87.70;;;;;;4946218;29;20106;-75
2021/01/20 08:06:10;;;;;;;6.67;3.23;;;8.70;87.90;;;;;;4929860;29;20024;-75
2021/01/20 08:08:55;;;;;;;6.57;2.23;;;8.70;88.20;;;;;;4946032;29;20031;-76
2021/01/20 08:11:27;;;;;;;5.27;2.33;;;8.70;88.40;;;;;;4931412;29;20046;-75
2021/01/20 08:13:53;;;;;;;6.03;2.30;;;8.70;88.70;;;;;;4931459;29;20020;-75
2021/01/20 08:16:19;;;;;;;6.30;2.80;;;8.70;89.00;;;;;;4930275;29;20034;-75
2021/01/20 08:18:46;;;;;;;4.43;2.10;;;8.70;89.20;;;;;;4932262;29;20055;-75
2021/01/20 08:21:12;;;;;;;4.97;2.17;;;8.60;89.40;;;;;;4929916;29;20027;-76
2021/01/20 08:23:49;;;;;;;7.67;2.73;;;8.70;89.70;;;;;;4944354;29;20028;-76
2021/01/20 08:26:15;;;;;;;7.73;2.53;;;8.70;89.90;;;;;;4938218;29;20031;-75
2021/01/20 08:29:09;;;;;;;6.23;2.57;;;8.70;90.00;;;;;;4938249;29;20091;-74
2021/01/20 08:31:35;;;;;;;6.87;2.50;;;8.70;90.10;;;;;;4938279;29;20020;-74
2021/01/20 08:34:18;;;;;;;6.43;2.20;;;8.70;90.20;;;;;;4938047;29;20055;-75
2021/01/20 08:37:04;;;;;;;5.70;2.27;;;8.70;90.30;;;;;;4939640;29;20089;-73
2021/01/20 08:39:35;;;;;;;6.87;2.70;;;8.70;90.40;;;;;;4949737;29;20024;-72
2021/01/20 08:42:26;;;;;;;5.10;1.90;;;8.70;90.40;;;;;;4956861;29;20495;-74
2021/01/20 08:45:12;;;;;;;8.87;2.20;;;8.80;90.60;;;;;;4956728;29;20051;-73
2021/01/20 08:48:02;;;;;;;5.37;2.30;;;8.80;90.70;;;;;;4957527;29;20027;-74
2021/01/20 08:50:27;;;;;;;7.37;2.30;;;8.70;90.70;;;;;;4957125;29;20057;-75
2021/01/20 08:52:54;;;;;;;6.87;2.50;;;8.70;90.80;;;;;;4940101;29;20367;-73
2021/01/20 08:55:34;;;;;;;6.17;2.10;;;8.80;90.90;;;;;;4940027;29;20031;-74
2021/01/20 08:58:19;;;;;;;6.73;1.80;;;8.80;90.80;;;;;;4957410;29;20472;-75
2021/01/20 09:00:46;;;;;;;5.23;1.83;;;8.80;90.80;;;;;;4956868;29;20064;-74
2021/01/20 09:03:16;;;;;;;6.47;2.00;;;8.80;90.70;;;;;;4940031;28;20575;-75
2021/01/20 09:05:44;;;;;;;5.57;1.97;;;8.80;90.90;;;;;;4924146;29;20027;-73
2021/01/20 09:08:09;;;;;;;3.23;1.47;;;8.80;90.70;;;;;;4940056;29;20031;-73
2021/01/20 09:10:35;;;;;;;4.23;1.60;;;8.90;90.80;;;;;;4939490;29;20029;-74
2021/01/20 09:13:01;;;;;;;6.07;1.83;;;8.90;90.60;;;;;;4939494;29;20023;-74
2021/01/20 09:15:27;;;;;;;4.47;1.77;;;8.90;90.70;;;;;;4939689;29;20447;-75
2021/01/20 09:17:53;;;;;;;5.77;1.80;;;8.90;90.50;;;;;;4923969;29;20028;-75
2021/01/20 09:20:19;;;;;;;4.50;1.67;;;8.90;90.30;;;;;;4939401;29;20035;-74
2021/01/20 09:22:44;;;;;;;5.70;1.60;;;8.90;90.10;;;;;;4907710;29;20027;-74
2021/01/20 09:25:11;;;;;;;3.10;1.23;;;9.00;89.80;;;;;;4906047;29;20047;-73
2021/01/20 09:27:36;;;;;;;5.07;1.90;;;9.10;89.60;;;;;;4937434;29;20074;-77
2021/01/20 09:30:02;;;;;;;3.90;1.70;;;9.10;88.50;;;;;;4888771;29;20037;-74
2021/01/20 09:32:29;;;;;;;3.77;1.50;;;9.10;88.60;;;;;;4933474;29;20118;-74
2021/01/20 09:34:54;;;;;;;3.53;1.20;;;9.20;88.00;;;;;;4923632;29;20126;-75
2021/01/20 09:37:20;;;;;;;3.33;1.20;;;9.20;86.70;;;;;;4951670;29;20526;-74
2021/01/20 09:39:45;;;;;;;4.80;1.60;;;9.30;87.50;;;;;;4918170;29;20104;-73
2021/01/20 09:42:11;;;;;;;3.80;1.30;;;9.40;86.50;;;;;;4919905;29;20115;-74
2021/01/20 09:44:37;;;;;;;2.97;1.20;;;9.50;85.90;;;;;;4936871;29;20142;-75
2021/01/20 09:47:03;;;;;;;4.47;1.20;;;9.50;86.20;;;;;;4920158;29;20468;-74
2021/01/20 09:49:28;;;;;;;4.20;1.20;;;9.50;85.40;;;;;;4904085;29;20058;-74
2021/01/20 09:51:54;;;;;;;3.20;1.20;;;9.60;85.20;;;;;;4904131;29;20036;-75
2021/01/20 09:54:20;;;;;;;2.83;1.00;;;9.70;84.00;;;;;;4888514;29;20028;-74
2021/01/20 09:56:46;;;;;;;4.10;1.33;;;9.80;82.80;;;;;;4904399;29;20543;-74
2021/01/20 09:59:12;;;;;;;2.70;1.10;;;9.90;83.70;;;;;;4904204;29;20055;-73
2021/01/20 10:01:37;;;;;;;3.17;1.27;;;10.00;84.10;;;;;;4919629;29;20042;-74
2021/01/20 10:04:03;;;;;;;3.30;1.17;;;10.10;83.70;;;;;;4904140;29;20130;-75
2021/01/20 10:06:28;;;;;;;2.53;1.00;;;10.30;83.30;;;;;;4919415;29;20136;-74
2021/01/20 10:08:54;;;;;;;2.87;0.90;;;10.40;80.90;;;;;;4904016;29;20028;-74
2021/01/20 10:11:20;;;;;;;3.43;1.20;;;10.50;80.40;;;;;;4903799;29;20338;-75
2021/01/20 10:13:45;;;;;;;2.83;1.10;;;10.60;80.30;;;;;;4888244;29;20027;-75
2021/01/20 10:16:11;;;;;;;3.30;1.10;;;10.70;80.40;;;;;;4903454;29;20123;-75
2021/01/20 10:18:36;;;;;;;3.20;1.10;;;10.70;79.00;;;;;;4903755;29;20507;-75
2021/01/20 10:21:02;;;;;;;3.17;1.10;;;10.70;77.20;;;;;;4936563;29;20493;-76
2021/01/20 10:23:28;;;;;;;4.60;1.37;;;10.80;76.90;;;;;;4936657;29;20440;-76
2021/01/20 10:25:53;;;;;;;3.37;1.00;;;10.90;76.30;;;;;;4888253;29;20038;-75
2021/01/20 10:28:19;;;;;;;4.87;1.10;;;10.90;75.70;;;;;;4903747;29;20392;-76
2021/01/20 10:30:45;;;;;;;5.10;1.27;;;11.00;74.00;;;;;;4903638;29;20024;-76
2021/01/20 10:33:10;;;;;;;3.37;1.30;;;10.90;72.70;;;;;;4936263;29;20046;-75
2021/01/20 10:35:36;;;;;;;3.33;1.10;;;10.90;72.70;;;;;;4936279;29;20040;-74
2021/01/20 10:38:02;;;;;;;5.57;1.10;;;10.80;71.80;;;;;;4919237;29;20070;-76
2021/01/20 10:40:28;;;;;;;4.40;1.40;;;10.70;71.90;;;;;;4919030;29;20031;-75
2021/01/20 10:42:53;;;;;;;3.80;1.00;;;10.60;72.00;;;;;;4919102;29;20036;-77
2021/01/20 10:45:20;;;;;;;2.23;1.10;;;10.60;72.30;;;;;;4919208;29;20051;-76
2021/01/20 10:47:46;;;;;;;5.47;1.07;;;10.60;71.90;;;;;;4923344;29;20031;-75
2021/01/20 10:50:12;;;;;;;3.43;1.23;;;10.50;72.70;;;;;;4929132;29;20475;-75
2021/01/20 10:52:38;;;;;;;2.83;0.90;;;10.50;71.90;;;;;;4917681;29;20506;-75
2021/01/20 10:55:04;;;;;;;3.20;1.30;;;10.50;71.40;;;;;;4903216;29;20028;-75
2021/01/20 10:57:29;;;;;;;2.43;1.20;;;10.50;71.80;;;;;;4919080;29;20047;-75
2021/01/20 10:59:56;;;;;;;3.33;1.30;;;10.50;70.90;;;;;;4918918;29;20044;-75
2021/01/20 11:02:22;;;;;;;3.77;1.37;;;10.50;71.10;;;;;;4935946;29;20036;-75
2021/01/20 11:04:48;;;;;;;4.17;1.03;;;10.50;71.20;;;;;;4920246;29;20062;-75
2021/01/20 11:07:14;;;;;;;4.03;1.10;;;10.50;70.90;;;;;;4936632;29;20503;-75
2021/01/20 11:09:42;;;;;;;3.27;1.10;;;10.60;70.10;;;;;;4937093;29;20059;-76
2021/01/20 11:12:08;;;;;;;3.97;1.10;;;10.70;71.30;;;;;;4937643;29;20027;-75
2021/01/20 11:14:34;;;;;;;3.07;1.00;;;10.70;68.10;;;;;;4937732;29;20539;-75
2021/01/20 11:16:59;;;;;;;3.50;1.13;;;10.70;68.30;;;;;;4921305;29;20037;-74
2021/01/20 11:19:25;;;;;;;2.23;0.90;;;10.70;68.30;;;;;;4921684;29;20562;-75
2021/01/20 11:21:52;;;;;;;3.10;0.90;;;10.80;67.70;;;;;;4946523;29;20542;-76
2021/01/20 11:24:18;;;;;;;3.23;1.27;;;10.80;67.50;;;;;;4921838;29;20031;-76
2021/01/20 11:26:45;;;;;;;2.87;1.00;;;10.80;67.20;;;;;;4914936;29;20123;-76
2021/01/20 11:29:12;;;;;;;4.93;1.07;;;10.80;67.50;;;;;;4947862;29;20468;-74
2021/01/20 11:31:37;;;;;;;3.67;1.20;;;10.80;67.00;;;;;;4932408;29;20106;-76
2021/01/20 11:34:03;;;;;;;3.93;1.20;;;10.90;67.00;;;;;;4906902;29;20123;-76
2021/01/20 11:36:28;;;;;;;4.63;1.10;;;10.90;67.10;;;;;;4947784;29;20027;-75
2021/01/20 11:38:54;;;;;;;5.60;1.43;;;10.70;67.30;;;;;;4925306;29;20071;-76
2021/01/20 11:41:20;;;;;;;4.80;1.10;;;10.90;66.60;;;;;;4925307;29;20526;-75
2021/01/20 11:43:47;;;;;;;3.27;0.90;;;10.90;66.40;;;;;;4941029;29;20055;-75
2021/01/20 11:46:12;;;;;;;4.73;1.57;;;10.90;65.40;;;;;;4909817;29;20035;-75
2021/01/20 11:48:38;;;;;;;4.43;1.07;;;10.90;65.40;;;;;;4940235;29;20030;-74
2021/01/20 11:51:04;;;;;;;2.63;1.03;;;10.90;65.50;;;;;;4957715;29;20563;-74
2021/01/20 11:53:29;;;;;;;3.30;1.07;;;10.90;64.70;;;;;;4941484;29;20024;-80
2021/01/20 11:55:55;;;;;;;4.27;0.93;;;10.90;63.80;;;;;;4942072;29;20089;-80
2021/01/20 11:58:21;;;;;;;3.10;1.00;;;10.90;64.80;;;;;;4941420;29;20059;-82
2021/01/20 12:00:46;;;;;;;3.27;1.07;;;10.90;64.70;;;;;;4941075;29;20035;-79
2021/01/20 12:03:12;;;;;;;4.00;1.73;;;11.00;65.10;;;;;;4941045;29;20447;-81
2021/01/20 12:05:37;;;;;;;3.40;0.90;;;11.10;64.60;;;;;;4909157;29;20035;-80
2021/01/20 12:08:03;;;;;;;2.23;0.80;;;11.20;64.60;;;;;;4938306;29;20039;-80
2021/01/20 12:10:29;;;;;;;4.73;1.03;;;11.30;64.40;;;;;;4944688;29;20379;-79
2021/01/20 12:12:55;;;;;;;3.07;1.07;;;11.20;64.20;;;;;;4957756;29;20034;-79
2021/01/20 12:15:20;;;;;;;3.40;1.27;;;11.20;63.60;;;;;;4923759;29;20032;-78
2021/01/20 12:17:46;;;;;;;4.00;1.10;;;11.20;64.00;;;;;;4948348;29;20480;-79
2021/01/20 12:20:12;;;;;;;8.27;1.20;;;11.20;64.40;;;;;;4938740;29;20028;-78
2021/01/20 12:22:38;;;;;;;3.10;1.10;;;11.10;64.40;;;;;;4949161;29;20036;-79
2021/01/20 12:25:06;;;;;;;3.53;1.10;;;11.10;64.30;;;;;;4920389;29;20035;-79
2021/01/20 12:27:32;;;;;;;3.83;1.43;;;11.10;65.20;;;;;;4937341;29;20027;-82
2021/01/20 12:29:58;;;;;;;4.00;1.23;;;11.00;65.30;;;;;;4937925;29;20032;-81
2021/01/20 12:32:24;;;;;;;1.83;0.73;;;11.00;64.00;;;;;;4937524;29;20491;-80
2021/01/20 12:34:50;;;;;;;3.33;1.03;;;10.90;64.30;;;;;;4920612;29;20715;-79
2021/01/20 12:37:16;;;;;;;4.23;1.13;;;11.00;65.00;;;;;;4920091;29;20076;-80
2021/01/20 12:39:41;;;;;;;2.43;1.00;;;10.80;65.00;;;;;;4936776;29;20028;-80
2021/01/20 12:42:07;;;;;;;2.93;0.97;;;10.80;64.40;;;;;;4921121;29;20039;-80
2021/01/20 12:44:33;;;;;;;3.23;1.13;;;10.80;63.80;;;;;;4920793;29;20048;-79
2021/01/20 12:46:58;;;;;;;4.27;1.30;;;10.70;64.00;;;;;;4920905;29;20028;-80
2021/01/20 12:49:24;;;;;;;3.63;1.20;;;10.70;63.80;;;;;;4937431;29;20035;-79
2021/01/20 12:51:49;;;;;;;4.87;1.30;;;10.60;64.70;;;;;;4913928;29;20035;-79
2021/01/20 12:54:15;;;;;;;5.20;1.53;;;10.60;64.70;;;;;;4920248;29;20028;-81
2021/01/20 12:56:41;;;;;;;5.87;1.23;;;10.60;64.30;;;;;;4932190;29;20039;-80